createdAt,value
2019-05-25T00:02:16.758Z,11.79
2019-05-25T00:04:45.910Z,11.78
2019-05-25T00:07:15.114Z,11.77
2019-05-25T00:09:44.321Z,11.76
2019-05-25T00:12:13.473Z,11.75
2019-05-25T00:14:42.662Z,11.74
2019-05-25T00:17:11.851Z,11.73
2019-05-25T00:19:41.004Z,11.72
2019-05-25T00:22:10.176Z,11.69
2019-05-25T00:24:39.340Z,11.68
2019-05-25T00:27:08.498Z,11.65
2019-05-25T00:29:37.727Z,11.60
2019-05-25T00:32:06.878Z,11.58
2019-05-25T00:34:36.042Z,11.57
2019-05-25T00:37:05.203Z,11.54
2019-05-25T00:39:34.363Z,11.51
2019-05-25T00:42:03.530Z,11.50
2019-05-25T00:44:32.715Z,11.49
2019-05-25T00:47:01.874Z,11.48
2019-05-25T00:49:31.087Z,11.50
2019-05-25T00:52:00.305Z,11.50
2019-05-25T00:54:29.486Z,11.49
2019-05-25T00:56:58.642Z,11.43
2019-05-25T00:59:27.825Z,11.36
2019-05-25T01:01:56.974Z,11.33
2019-05-25T01:04:26.129Z,11.31
2019-05-25T01:06:55.318Z,11.33
2019-05-25T01:09:24.458Z,11.40
2019-05-25T01:11:53.607Z,11.47
2019-05-25T01:14:22.789Z,11.54
2019-05-25T01:16:52.061Z,11.59
2019-05-25T01:19:21.243Z,11.59
2019-05-25T01:21:50.436Z,11.61
2019-05-25T01:24:19.591Z,11.60
2019-05-25T01:26:48.736Z,11.63
2019-05-25T01:29:17.923Z,11.68
2019-05-25T01:31:47.069Z,11.71
2019-05-25T01:34:16.251Z,11.74
2019-05-25T01:36:45.427Z,11.79
2019-05-25T01:39:14.600Z,11.80
2019-05-25T01:41:43.761Z,11.83
2019-05-25T01:44:12.980Z,11.88
2019-05-25T01:46:42.139Z,11.95
2019-05-25T01:49:11.315Z,12.00
2019-05-25T01:51:40.507Z,12.01
2019-05-25T01:54:09.647Z,12.06
2019-05-25T01:56:38.805Z,12.08
2019-05-25T01:59:07.977Z,12.07
2019-05-25T02:01:37.141Z,12.10
2019-05-25T02:04:06.297Z,12.13
2019-05-25T02:06:35.463Z,12.12
2019-05-25T02:09:06.982Z,12.15
2019-05-25T02:11:36.119Z,12.18
2019-05-25T02:14:05.709Z,12.20
2019-05-25T02:16:34.867Z,12.24
2019-05-25T02:19:04.014Z,12.26
2019-05-25T02:21:33.191Z,12.25
2019-05-25T02:24:02.372Z,12.28
2019-05-25T02:26:31.534Z,12.32
2019-05-25T02:29:00.766Z,12.31
2019-05-25T02:31:29.929Z,12.34
2019-05-25T02:33:59.088Z,12.35
2019-05-25T02:36:28.276Z,12.35
2019-05-25T02:38:57.449Z,12.35
2019-05-25T02:41:26.633Z,12.37
2019-05-25T02:43:55.890Z,12.40
2019-05-25T02:46:25.069Z,12.40
2019-05-25T02:48:54.229Z,12.39
2019-05-25T02:51:23.417Z,12.40
2019-05-25T02:53:52.638Z,12.40
2019-05-25T02:56:21.809Z,12.43
2019-05-25T02:58:51.058Z,12.44
2019-05-25T03:01:20.217Z,12.46
2019-05-25T03:03:49.529Z,12.46
2019-05-25T03:06:20.090Z,12.48
2019-05-25T03:08:49.588Z,12.47
2019-05-25T03:11:32.180Z,12.46
2019-05-25T03:14:31.964Z,12.43
2019-05-25T03:17:01.166Z,12.43
2019-05-25T03:19:30.320Z,12.43
2019-05-25T03:21:59.490Z,12.44
2019-05-25T03:24:28.678Z,12.45
2019-05-25T03:26:57.838Z,12.49
2019-05-25T03:29:27.013Z,12.54
2019-05-25T03:31:56.257Z,12.55
2019-05-25T03:34:25.478Z,12.56
2019-05-25T03:36:55.203Z,12.57
2019-05-25T03:39:23.677Z,12.56
2019-05-25T03:41:52.789Z,12.58
2019-05-25T03:44:21.977Z,12.60
2019-05-25T03:46:51.191Z,12.59
2019-05-25T03:49:20.350Z,12.60
2019-05-25T03:51:49.546Z,12.58
2019-05-25T03:54:18.837Z,12.57
2019-05-25T03:56:48.049Z,12.62
2019-05-25T03:59:17.267Z,12.64
2019-05-25T04:01:46.479Z,12.62
2019-05-25T04:04:15.645Z,12.65
2019-05-25T04:06:44.870Z,12.66
2019-05-25T04:09:14.025Z,12.68
2019-05-25T04:11:43.206Z,12.68
2019-05-25T04:14:12.418Z,12.69
2019-05-25T04:16:41.685Z,12.68
2019-05-25T04:19:10.846Z,12.70
2019-05-25T04:21:40.021Z,12.72
2019-05-25T04:24:11.925Z,12.76
2019-05-25T04:26:41.172Z,12.74
2019-05-25T04:29:10.361Z,12.71
2019-05-25T04:31:39.541Z,12.73
2019-05-25T04:34:08.721Z,12.78
2019-05-25T04:36:37.868Z,12.85
2019-05-25T04:39:07.910Z,12.88
2019-05-25T04:41:37.082Z,12.90
2019-05-25T04:44:06.345Z,12.93
2019-05-25T04:46:35.619Z,12.99
2019-05-25T04:49:04.928Z,13.03
2019-05-25T04:51:34.231Z,13.07
2019-05-25T04:54:03.551Z,13.09
2019-05-25T04:56:40.533Z,13.11
2019-05-25T04:59:13.697Z,13.12
2019-05-25T05:01:48.064Z,13.14
2019-05-25T05:04:39.767Z,13.17
2019-05-25T05:07:22.697Z,13.18
2019-05-25T05:10:02.554Z,13.20
2019-05-25T05:12:28.900Z,13.20
2019-05-25T05:14:58.098Z,13.22
2019-05-25T05:17:27.288Z,13.26
2019-05-25T05:19:56.544Z,13.28
2019-05-25T05:22:25.698Z,13.30
2019-05-25T05:24:54.883Z,13.32
2019-05-25T05:27:24.066Z,13.32
2019-05-25T05:29:53.229Z,13.33
2019-05-25T05:32:27.590Z,13.36
2019-05-25T05:34:53.606Z,13.38
2019-05-25T05:37:24.623Z,13.38
2019-05-25T05:39:54.255Z,13.41
2019-05-25T05:42:24.704Z,13.46
2019-05-25T05:44:55.865Z,13.49
2019-05-25T05:47:30.077Z,13.53
2019-05-25T05:50:00.856Z,13.54
2019-05-25T05:52:32.679Z,13.61
2019-05-25T05:55:03.387Z,13.67
2019-05-25T05:57:32.668Z,13.77
2019-05-25T06:00:01.958Z,13.90
2019-05-25T06:02:31.272Z,14.02
2019-05-25T06:05:20.940Z,14.11
2019-05-25T06:07:50.455Z,14.14
2019-05-25T06:10:20.261Z,14.20
2019-05-25T06:12:50.910Z,14.26
2019-05-25T06:15:25.690Z,14.30
2019-05-25T06:17:58.634Z,14.31
2019-05-25T06:20:27.801Z,14.26
2019-05-25T06:23:00.727Z,14.24
2019-05-25T06:25:31.281Z,14.26
2019-05-25T06:28:00.720Z,14.24
2019-05-25T06:30:30.139Z,14.18
2019-05-25T06:32:59.627Z,14.10
2019-05-25T06:35:28.786Z,14.07
2019-05-25T06:37:58.047Z,14.09
2019-05-25T06:40:32.102Z,14.09
2019-05-25T06:43:01.351Z,14.09
2019-05-25T06:45:30.709Z,14.08
2019-05-25T06:47:59.898Z,14.08
2019-05-25T06:50:29.213Z,14.12
2019-05-25T06:52:58.441Z,14.19
2019-05-25T06:55:32.057Z,14.25
2019-05-25T06:58:01.331Z,14.30
2019-05-25T07:00:40.650Z,14.36
2019-05-25T07:03:10.505Z,14.43
2019-05-25T07:05:38.957Z,14.51
2019-05-25T07:08:08.467Z,14.61
2019-05-25T07:10:37.638Z,14.68
2019-05-25T07:13:06.873Z,14.79
2019-05-25T07:15:37.004Z,14.93
2019-05-25T07:18:06.219Z,15.07
2019-05-25T07:20:35.393Z,15.15
2019-05-25T07:23:04.879Z,15.23
2019-05-25T07:25:37.218Z,15.37
2019-05-25T07:28:34.613Z,15.56
2019-05-25T07:31:09.927Z,15.72
2019-05-25T07:33:39.464Z,15.77
2019-05-25T07:36:17.192Z,15.69
2019-05-25T07:38:46.375Z,15.69
2019-05-25T07:41:15.530Z,15.75
2019-05-25T07:43:53.855Z,15.80
2019-05-25T07:49:39.277Z,15.78
2019-05-25T07:52:08.469Z,15.72
2019-05-25T07:54:37.741Z,15.72
2019-05-25T07:57:12.598Z,15.67
2019-05-25T07:59:53.189Z,15.65
2019-05-25T08:02:20.424Z,15.61
2019-05-25T08:04:49.589Z,15.63
2019-05-25T08:07:19.267Z,15.68
2019-05-25T08:09:47.864Z,15.73
2019-05-25T08:12:18.096Z,15.79
2019-05-25T08:14:47.252Z,15.83
2019-05-25T08:17:16.449Z,15.92
2019-05-25T08:19:45.629Z,15.91
2019-05-25T08:22:14.842Z,15.87
2019-05-25T08:24:44.023Z,15.88
2019-05-25T08:27:13.272Z,15.89
2019-05-25T08:29:42.545Z,15.80
2019-05-25T08:32:11.755Z,15.79
2019-05-25T08:34:40.946Z,15.80
2019-05-25T08:37:10.102Z,15.84
2019-05-25T08:39:42.389Z,15.91
2019-05-25T08:42:11.780Z,15.91
2019-05-25T08:44:41.028Z,15.86
2019-05-25T08:47:10.216Z,15.91
2019-05-25T08:49:39.426Z,15.98
2019-05-25T08:52:09.761Z,16.02
2019-05-25T08:54:40.112Z,16.07
2019-05-25T08:57:18.673Z,16.14
2019-05-25T09:03:15.922Z,16.18
2019-05-25T09:05:42.055Z,16.18
2019-05-25T09:08:25.677Z,16.07
2019-05-25T09:10:55.082Z,15.98
2019-05-25T09:13:30.835Z,15.98
2019-05-25T09:16:00.008Z,15.97
2019-05-25T09:18:29.161Z,15.92
2019-05-25T09:20:58.351Z,15.89
2019-05-25T09:23:27.525Z,15.84
2019-05-25T09:25:56.693Z,15.82
2019-05-25T09:28:36.682Z,15.81
2019-05-25T09:31:12.852Z,15.75
2019-05-25T09:33:56.818Z,15.72
2019-05-25T09:36:31.907Z,15.71
2019-05-25T09:39:01.543Z,15.74
2019-05-25T09:41:30.971Z,15.74
2019-05-25T09:44:06.248Z,15.85
2019-05-25T09:46:54.857Z,15.95
2019-05-25T09:49:25.087Z,15.95
2019-05-25T09:51:54.310Z,15.91
2019-05-25T09:54:24.295Z,15.82
2019-05-25T09:56:54.031Z,15.75
2019-05-25T09:59:54.057Z,15.73
2019-05-25T10:02:14.220Z,15.63
2019-05-25T10:04:43.384Z,15.50
2019-05-25T10:07:14.166Z,15.48
2019-05-25T10:09:44.419Z,15.49
2019-05-25T10:12:29.527Z,15.59
2019-05-25T10:15:12.896Z,15.69
2019-05-25T10:17:42.391Z,15.88
2019-05-25T10:20:12.197Z,15.94
2019-05-25T10:22:41.477Z,15.91
2019-05-25T10:25:15.619Z,15.98
2019-05-25T10:27:44.892Z,16.06
2019-05-25T10:30:14.531Z,16.33
2019-05-25T10:32:43.090Z,16.44
2019-05-25T10:35:12.960Z,16.51
2019-05-25T10:37:42.138Z,16.69
2019-05-25T10:40:12.643Z,17.12
2019-05-25T10:42:41.817Z,17.76
2019-05-25T10:45:12.175Z,17.74
2019-05-25T10:47:41.327Z,17.71
2019-05-25T10:50:11.127Z,17.84
2019-05-25T10:52:45.738Z,17.93
2019-05-25T10:55:15.532Z,17.87
2019-05-25T10:57:52.279Z,17.83
2019-05-25T11:00:49.398Z,17.85
2019-05-25T11:03:19.201Z,18.00
2019-05-25T11:05:48.512Z,17.91
2019-05-25T11:08:17.734Z,17.82
2019-05-25T11:10:50.414Z,17.78
2019-05-25T11:13:19.613Z,17.84
2019-05-25T11:15:48.823Z,18.32
2019-05-25T11:18:18.070Z,18.67
2019-05-25T11:20:47.233Z,18.71
2019-05-25T11:23:16.428Z,18.81
2019-05-25T11:25:59.141Z,18.91
2019-05-25T11:28:28.424Z,18.99
2019-05-25T11:30:57.695Z,19.06
2019-05-25T11:33:26.880Z,19.09
2019-05-25T11:35:56.070Z,19.21
2019-05-25T11:38:25.238Z,19.16
2019-05-25T11:40:54.505Z,19.00
2019-05-25T11:43:23.684Z,18.86
2019-05-25T11:45:52.819Z,18.91
2019-05-25T11:48:22.041Z,18.98
2019-05-25T11:50:51.244Z,19.16
2019-05-25T11:53:20.734Z,19.22
2019-05-25T11:55:49.204Z,19.42
2019-05-25T11:58:25.893Z,19.33
2019-05-25T12:00:55.153Z,19.26
2019-05-25T12:03:24.309Z,19.20
2019-05-25T12:05:53.469Z,19.18
2019-05-25T12:08:34.793Z,19.14
2019-05-25T12:11:10.424Z,19.10
2019-05-25T12:16:36.448Z,19.09
2019-05-25T12:19:05.739Z,19.08
2019-05-25T12:21:34.905Z,19.12
2019-05-25T12:24:09.397Z,19.23
2019-05-25T12:29:39.154Z,19.44
2019-05-25T12:32:14.396Z,19.43
2019-05-25T12:34:46.677Z,19.40
2019-05-25T12:37:36.383Z,19.44
2019-05-25T12:40:05.795Z,19.47
2019-05-25T12:42:35.183Z,19.50
2019-05-25T12:45:12.881Z,19.55
2019-05-25T12:47:42.139Z,19.49
2019-05-25T12:50:23.300Z,19.57
2019-05-25T12:53:09.181Z,19.63
2019-05-25T12:55:57.640Z,19.60
2019-05-25T12:58:27.402Z,19.43
2019-05-25T13:00:57.523Z,19.47
2019-05-25T13:03:28.394Z,19.25
2019-05-25T13:05:59.454Z,19.14
2019-05-25T13:08:28.949Z,19.15
2019-05-25T13:11:09.427Z,19.16
2019-05-25T13:13:40.865Z,19.18
2019-05-25T13:16:13.261Z,19.22
2019-05-25T13:18:42.462Z,19.50
2019-05-25T13:21:20.934Z,19.46
2019-05-25T13:23:50.211Z,19.50
2019-05-25T13:26:19.369Z,19.46
2019-05-25T13:28:48.549Z,19.34
2019-05-25T13:31:17.802Z,19.38
2019-05-25T13:33:52.852Z,19.64
2019-05-25T13:36:22.076Z,19.93
2019-05-25T13:38:51.245Z,20.23
2019-05-25T13:41:20.514Z,20.52
2019-05-25T13:43:51.202Z,20.81
2019-05-25T13:46:20.507Z,21.01
2019-05-25T13:48:49.708Z,20.90
2019-05-25T13:51:18.927Z,21.13
2019-05-25T13:53:48.102Z,21.10
2019-05-25T13:56:17.278Z,20.89
2019-05-25T13:58:46.436Z,20.77
2019-05-25T14:01:27.932Z,20.81
2019-05-25T14:03:50.437Z,20.79
2019-05-25T14:06:19.650Z,20.84
2019-05-25T14:08:49.916Z,20.86
2019-05-25T14:11:19.190Z,21.24
2019-05-25T14:13:48.438Z,21.39
2019-05-25T14:16:17.653Z,21.65
2019-05-25T14:18:46.834Z,21.93
2019-05-25T14:21:16.003Z,22.20
2019-05-25T14:23:45.180Z,22.44
2019-05-25T14:26:14.420Z,22.44
2019-05-25T14:28:43.597Z,22.45
2019-05-25T14:31:12.807Z,22.58
2019-05-25T14:33:41.985Z,22.70
2019-05-25T14:36:11.178Z,22.76
2019-05-25T14:38:40.578Z,22.78
2019-05-25T14:41:09.019Z,22.94
2019-05-25T14:43:38.462Z,23.00
2019-05-25T14:46:06.938Z,22.89
2019-05-25T14:48:36.189Z,22.70
2019-05-25T14:51:05.478Z,22.37
2019-05-25T14:53:36.060Z,22.14
2019-05-25T14:56:05.232Z,22.30
2019-05-25T14:58:34.411Z,22.58
2019-05-25T15:01:03.666Z,22.63
2019-05-25T15:03:32.999Z,22.42
2019-05-25T15:06:02.223Z,22.48
2019-05-25T15:08:32.444Z,22.21
2019-05-25T15:11:01.640Z,21.87
2019-05-25T15:13:30.801Z,21.57
2019-05-25T15:15:59.998Z,21.33
2019-05-25T15:18:29.279Z,21.16
2019-05-25T15:20:58.461Z,21.01
2019-05-25T15:23:27.784Z,20.86
2019-05-25T15:25:56.938Z,20.74
2019-05-25T15:28:26.139Z,20.59
2019-05-25T15:30:55.300Z,20.47
2019-05-25T15:33:24.497Z,20.35
2019-05-25T15:35:53.752Z,20.28
2019-05-25T15:38:22.940Z,20.34
2019-05-25T15:40:52.188Z,20.58
2019-05-25T15:43:21.369Z,20.76
2019-05-25T15:45:50.634Z,20.91
2019-05-25T15:48:19.815Z,20.99
2019-05-25T15:50:48.996Z,21.01
2019-05-25T15:53:18.217Z,21.11
2019-05-25T15:55:47.379Z,21.18
2019-05-25T15:58:17.541Z,21.28
2019-05-25T16:00:49.386Z,21.41
2019-05-25T16:03:19.827Z,21.49
2019-05-25T16:05:49.258Z,21.50
2019-05-25T16:08:18.449Z,21.52
2019-05-25T16:10:48.032Z,21.61
2019-05-25T16:13:17.462Z,21.59
2019-05-25T16:15:45.961Z,21.65
2019-05-25T16:18:15.065Z,21.67
2019-05-25T16:20:44.329Z,21.73
2019-05-25T16:23:14.583Z,21.78
2019-05-25T16:25:43.790Z,21.88
2019-05-25T16:28:12.952Z,21.99
2019-05-25T16:30:42.179Z,21.99
2019-05-25T16:35:42.308Z,21.70
2019-05-25T16:38:12.764Z,21.60
2019-05-25T16:38:21.104Z,22.01
2019-05-25T16:40:42.222Z,21.37
2019-05-25T16:43:11.667Z,21.32
2019-05-25T16:45:40.182Z,21.09
2019-05-25T16:48:09.345Z,21.16
2019-05-25T16:50:38.587Z,21.16
2019-05-25T16:53:07.780Z,21.08
2019-05-25T16:55:37.073Z,21.03
2019-05-25T16:58:06.282Z,21.05
2019-05-25T17:00:35.534Z,21.25
2019-05-25T17:03:04.803Z,21.37
2019-05-25T17:05:35.276Z,21.29
2019-05-25T17:08:04.555Z,21.07
2019-05-25T17:10:33.732Z,21.01
2019-05-25T17:13:03.586Z,20.94
2019-05-25T17:15:33.091Z,21.07
2019-05-25T17:18:04.529Z,21.19
2019-05-25T17:20:32.356Z,21.29
2019-05-25T17:23:01.526Z,21.41
2019-05-25T17:25:30.692Z,21.46
2019-05-25T17:27:59.864Z,21.39
2019-05-25T17:30:38.249Z,21.33
2019-05-25T17:33:07.603Z,21.36
2019-05-25T17:35:36.750Z,21.36
2019-05-25T17:38:06.040Z,21.37
2019-05-25T17:40:35.219Z,21.37
2019-05-25T17:43:04.561Z,21.26
2019-05-25T17:45:33.763Z,21.20
2019-05-25T17:48:03.001Z,21.13
2019-05-25T17:50:32.235Z,21.05
2019-05-25T17:53:01.417Z,20.91
2019-05-25T17:55:30.585Z,20.88
2019-05-25T17:57:59.804Z,20.75
2019-05-25T18:00:40.285Z,20.60
2019-05-25T18:03:09.446Z,20.58
2019-05-25T18:05:38.609Z,20.52
2019-05-25T18:08:08.140Z,20.36
2019-05-25T18:10:51.399Z,20.32
2019-05-25T18:13:07.476Z,20.27
2019-05-25T18:15:36.649Z,20.19
2019-05-25T18:18:06.875Z,20.05
2019-05-25T18:20:36.038Z,19.91
2019-05-25T18:23:05.583Z,19.72
2019-05-25T18:25:34.004Z,19.56
2019-05-25T18:28:03.204Z,19.44
2019-05-25T18:30:33.234Z,19.30
2019-05-25T18:33:02.441Z,19.16
2019-05-25T18:35:31.565Z,19.07
2019-05-25T18:38:00.790Z,18.99
2019-05-25T18:40:30.029Z,18.89
2019-05-25T18:42:59.215Z,18.78
2019-05-25T18:45:28.457Z,18.68
2019-05-25T18:47:57.692Z,18.56
2019-05-25T18:50:26.924Z,18.46
2019-05-25T18:52:56.113Z,18.35
2019-05-25T18:55:25.348Z,18.23
2019-05-25T18:57:54.507Z,18.12
2019-05-25T19:00:26.518Z,18.02
2019-05-25T19:02:55.676Z,17.92
2019-05-25T19:05:24.922Z,17.80
2019-05-25T19:07:54.106Z,17.66
2019-05-25T19:10:23.330Z,17.56
2019-05-25T19:12:52.876Z,17.48
2019-05-25T19:15:21.326Z,17.44
2019-05-25T19:17:50.413Z,17.42
2019-05-25T19:20:21.246Z,17.38
2019-05-25T19:22:50.646Z,17.34
2019-05-25T19:25:19.964Z,17.27
2019-05-25T19:27:49.116Z,17.18
2019-05-25T19:30:18.853Z,17.01
2019-05-25T19:32:48.030Z,16.89
2019-05-25T19:35:17.259Z,16.80
2019-05-25T19:37:46.434Z,16.76
2019-05-25T19:40:16.573Z,16.73
2019-05-25T19:42:49.557Z,16.70
2019-05-25T19:45:16.875Z,16.63
2019-05-25T19:47:46.034Z,16.53
2019-05-25T19:50:15.462Z,16.40
2019-05-25T19:52:44.999Z,16.21
2019-05-25T19:55:14.242Z,16.06
2019-05-25T19:57:45.357Z,15.94
2019-05-25T20:00:15.661Z,15.83
2019-05-25T20:02:45.061Z,15.77
2019-05-25T20:05:17.309Z,15.75
2019-05-25T20:07:46.516Z,15.73
2019-05-25T20:10:17.527Z,15.66
2019-05-25T20:12:46.729Z,15.42
2019-05-25T20:15:16.015Z,15.20
2019-05-25T20:17:45.173Z,15.05
2019-05-25T20:20:14.459Z,14.92
2019-05-25T20:22:43.615Z,14.80
2019-05-25T20:25:13.302Z,14.68
2019-05-25T20:27:41.753Z,14.57
2019-05-25T20:30:11.184Z,14.48
2019-05-25T20:32:40.330Z,14.44
2019-05-25T20:35:09.860Z,14.41
2019-05-25T20:37:39.064Z,14.35
2019-05-25T20:40:09.403Z,14.23
2019-05-25T20:42:38.843Z,14.11
2019-05-25T20:45:09.589Z,14.02
2019-05-25T20:47:38.738Z,14.02
2019-05-25T20:50:08.482Z,14.00
2019-05-25T20:52:36.907Z,13.97
2019-05-25T20:55:07.888Z,13.96
2019-05-25T20:57:37.421Z,13.94
2019-05-25T21:00:07.292Z,13.91
2019-05-25T21:02:36.480Z,13.86
2019-05-25T21:05:06.630Z,13.84
2019-05-25T21:07:35.784Z,13.83
2019-05-25T21:10:06.765Z,13.80
2019-05-25T21:12:35.941Z,13.77
2019-05-25T21:15:08.828Z,13.76
2019-05-25T21:17:37.971Z,13.73
2019-05-25T21:20:07.315Z,13.68
2019-05-25T21:22:36.622Z,13.59
2019-05-25T21:25:07.386Z,13.45
2019-05-25T21:27:36.923Z,13.37
2019-05-25T21:30:06.586Z,13.35
2019-05-25T21:32:35.018Z,13.32
2019-05-25T21:35:05.613Z,13.27
2019-05-25T21:37:34.777Z,13.21
2019-05-25T21:40:06.164Z,13.16
2019-05-25T21:42:35.335Z,13.07
2019-05-25T21:45:06.043Z,13.00
2019-05-25T21:47:35.231Z,12.94
2019-05-25T21:50:05.910Z,12.89
2019-05-25T21:52:35.078Z,12.86
2019-05-25T21:55:04.682Z,12.78
2019-05-25T21:57:33.859Z,12.75
2019-05-25T22:00:04.044Z,12.70
2019-05-25T22:02:33.200Z,12.64
2019-05-25T22:05:02.398Z,12.61
2019-05-25T22:07:31.541Z,12.57
2019-05-25T22:10:00.721Z,12.54
2019-05-25T22:12:29.876Z,12.50
2019-05-25T22:14:59.179Z,12.44
2019-05-25T22:17:28.341Z,12.42
2019-05-25T22:19:57.532Z,12.40
2019-05-25T22:22:26.690Z,12.38
2019-05-25T22:24:55.900Z,12.37
2019-05-25T22:27:25.083Z,12.42
2019-05-25T22:29:54.242Z,12.47
2019-05-25T22:32:23.409Z,12.51
2019-05-25T22:34:52.651Z,12.53
2019-05-25T22:37:21.815Z,12.56
2019-05-25T22:39:51.049Z,12.57
2019-05-25T22:42:20.246Z,12.58
2019-05-25T22:44:49.392Z,12.58
2019-05-25T22:47:18.619Z,12.57
2019-05-25T22:49:47.795Z,12.57
2019-05-25T22:52:16.968Z,12.61
2019-05-25T22:54:46.133Z,12.61
2019-05-25T22:57:15.300Z,12.62
2019-05-25T22:59:44.460Z,12.63
2019-05-25T23:02:13.619Z,12.64
2019-05-25T23:04:42.791Z,12.64
2019-05-25T23:07:11.959Z,12.65
2019-05-25T23:09:41.165Z,12.64
2019-05-25T23:12:10.363Z,12.64
2019-05-25T23:14:40.618Z,12.66
2019-05-25T23:17:09.750Z,12.67
2019-05-25T23:19:38.958Z,12.67
2019-05-25T23:22:08.120Z,12.67
2019-05-25T23:24:37.342Z,12.68
2019-05-25T23:27:06.522Z,12.68
2019-05-25T23:29:35.678Z,12.65
2019-05-25T23:32:05.005Z,12.59
2019-05-25T23:34:34.801Z,12.53
2019-05-25T23:37:14.252Z,12.48
2019-05-25T23:39:34.847Z,12.46
2019-05-25T23:42:04.091Z,12.44
2019-05-25T23:44:33.239Z,12.38
2019-05-25T23:47:02.406Z,12.34
2019-05-25T23:49:31.570Z,12.29
2019-05-25T23:52:00.767Z,12.29
2019-05-25T23:54:29.997Z,12.27
2019-05-25T23:56:59.175Z,12.25
2019-05-25T23:59:28.584Z,12.27
